sensor_id;sensor_type;location;lat;lon;timestamp;temperature;humidity
64796;DHT22;51229;51.980;6.722;2023-04-24T00:00:04;7.90;99.90
64796;DHT22;51229;51.980;6.722;2023-04-24T00:02:37;7.30;99.90
64796;DHT22;51229;51.980;6.722;2023-04-24T00:05:07;7.50;99.90
64796;DHT22;51229;51.980;6.722;2023-04-24T00:07:34;7.50;99.90
64796;DHT22;51229;51.980;6.722;2023-04-24T00:09:59;7.60;99.90
64796;DHT22;51229;51.980;6.722;2023-04-24T00:12:26;7.60;99.90
64796;DHT22;51229;51.980;6.722;2023-04-24T00:14:52;7.50;99.90
64796;DHT22;51229;51.980;6.722;2023-04-24T00:17:18;7.30;99.90
64796;DHT22;51229;51.980;6.722;2023-04-24T00:19:47;7.60;99.90
64796;DHT22;51229;51.980;6.722;2023-04-24T00:22:13;7.40;99.90
64796;DHT22;51229;51.980;6.722;2023-04-24T00:24:40;7.40;99.90
64796;DHT22;51229;51.980;6.722;2023-04-24T00:27:06;7.50;99.90
64796;DHT22;51229;51.980;6.722;2023-04-24T00:29:31;7.40;99.90
64796;DHT22;51229;51.980;6.722;2023-04-24T00:31:57;7.50;99.90
64796;DHT22;51229;51.980;6.722;2023-04-24T00:34:23;7.40;99.90
64796;DHT22;51229;51.980;6.722;2023-04-24T00:36:48;7.60;99.90
64796;DHT22;51229;51.980;6.722;2023-04-24T00:39:18;7.30;99.90
64796;DHT22;51229;51.980;6.722;2023-04-24T00:41:44;7.40;99.90
64796;DHT22;51229;51.980;6.722;2023-04-24T00:44:11;7.50;99.90
64796;DHT22;51229;51.980;6.722;2023-04-24T00:46:37;7.40;99.90
64796;DHT22;51229;51.980;6.722;2023-04-24T00:49:04;7.20;99.90
64796;DHT22;51229;51.980;6.722;2023-04-24T00:51:30;7.60;99.90
64796;DHT22;51229;51.980;6.722;2023-04-24T00:53:58;7.50;99.90
64796;DHT22;51229;51.980;6.722;2023-04-24T00:56:24;7.40;99.90
64796;DHT22;51229;51.980;6.722;2023-04-24T00:58:50;7.30;99.90
64796;DHT22;51229;51.980;6.722;2023-04-24T01:01:16;7.10;99.90
64796;DHT22;51229;51.980;6.722;2023-04-24T01:03:42;7.30;99.90
64796;DHT22;51229;51.980;6.722;2023-04-24T01:06:09;7.30;99.90
64796;DHT22;51229;51.980;6.722;2023-04-24T01:08:34;7.30;99.90
64796;DHT22;51229;51.980;6.722;2023-04-24T01:11:04;7.50;99.90
64796;DHT22;51229;51.980;6.722;2023-04-24T01:13:31;7.40;99.90
64796;DHT22;51229;51.980;6.722;2023-04-24T01:15:57;7.60;99.90
64796;DHT22;51229;51.980;6.722;2023-04-24T01:18:23;7.30;99.90
64796;DHT22;51229;51.980;6.722;2023-04-24T01:20:51;7.20;99.90
64796;DHT22;51229;51.980;6.722;2023-04-24T01:23:19;7.30;99.90
64796;DHT22;51229;51.980;6.722;2023-04-24T01:25:44;7.00;99.90
64796;DHT22;51229;51.980;6.722;2023-04-24T01:28:10;7.20;99.90
64796;DHT22;51229;51.980;6.722;2023-04-24T01:30:37;7.10;99.90
64796;DHT22;51229;51.980;6.722;2023-04-24T01:33:03;7.20;99.90
64796;DHT22;51229;51.980;6.722;2023-04-24T01:35:29;7.30;99.90
64796;DHT22;51229;51.980;6.722;2023-04-24T01:37:55;7.10;99.90
64796;DHT22;51229;51.980;6.722;2023-04-24T01:40:20;7.20;99.90
64796;DHT22;51229;51.980;6.722;2023-04-24T01:42:47;7.30;99.90
64796;DHT22;51229;51.980;6.722;2023-04-24T01:45:12;7.40;99.90
64796;DHT22;51229;51.980;6.722;2023-04-24T01:47:39;7.50;99.90
64796;DHT22;51229;51.980;6.722;2023-04-24T01:50:05;7.20;99.90
64796;DHT22;51229;51.980;6.722;2023-04-24T01:52:31;7.10;99.90
64796;DHT22;51229;51.980;6.722;2023-04-24T01:55:05;7.30;99.90
64796;DHT22;51229;51.980;6.722;2023-04-24T01:57:31;7.20;99.90
64796;DHT22;51229;51.980;6.722;2023-04-24T01:59:58;7.60;99.90
64796;DHT22;51229;51.980;6.722;2023-04-24T02:02:24;7.20;99.90
64796;DHT22;51229;51.980;6.722;2023-04-24T02:04:50;6.90;99.90
64796;DHT22;51229;51.980;6.722;2023-04-24T02:07:16;7.00;99.90
64796;DHT22;51229;51.980;6.722;2023-04-24T02:09:42;6.90;99.90
64796;DHT22;51229;51.980;6.722;2023-04-24T02:12:07;7.20;99.90
64796;DHT22;51229;51.980;6.722;2023-04-24T02:14:33;7.00;99.90
64796;DHT22;51229;51.980;6.722;2023-04-24T02:16:59;6.90;99.90
64796;DHT22;51229;51.980;6.722;2023-04-24T02:19:26;7.20;99.90
64796;DHT22;51229;51.980;6.722;2023-04-24T02:21:52;6.60;99.90
64796;DHT22;51229;51.980;6.722;2023-04-24T02:24:17;6.80;99.90
64796;DHT22;51229;51.980;6.722;2023-04-24T02:26:43;6.80;99.90
64796;DHT22;51229;51.980;6.722;2023-04-24T02:29:09;6.50;99.90
64796;DHT22;51229;51.980;6.722;2023-04-24T02:31:34;6.50;99.90
64796;DHT22;51229;51.980;6.722;2023-04-24T02:34:00;6.70;99.90
64796;DHT22;51229;51.980;6.722;2023-04-24T02:36:26;6.90;99.90
64796;DHT22;51229;51.980;6.722;2023-04-24T02:38:52;6.70;99.90
64796;DHT22;51229;51.980;6.722;2023-04-24T02:41:17;6.50;99.90
64796;DHT22;51229;51.980;6.722;2023-04-24T02:43:43;6.70;99.90
64796;DHT22;51229;51.980;6.722;2023-04-24T02:46:09;6.70;99.90
64796;DHT22;51229;51.980;6.722;2023-04-24T02:48:35;6.50;99.90
64796;DHT22;51229;51.980;6.722;2023-04-24T02:51:00;6.30;99.90
64796;DHT22;51229;51.980;6.722;2023-04-24T02:53:26;6.30;99.90
64796;DHT22;51229;51.980;6.722;2023-04-24T02:55:52;6.50;99.90
64796;DHT22;51229;51.980;6.722;2023-04-24T02:58:18;6.70;99.90
64796;DHT22;51229;51.980;6.722;2023-04-24T03:00:45;6.10;99.90
64796;DHT22;51229;51.980;6.722;2023-04-24T03:03:12;6.20;99.90
64796;DHT22;51229;51.980;6.722;2023-04-24T03:05:37;6.10;99.90
64796;DHT22;51229;51.980;6.722;2023-04-24T03:08:03;6.00;99.90
64796;DHT22;51229;51.980;6.722;2023-04-24T03:10:29;6.00;99.90
64796;DHT22;51229;51.980;6.722;2023-04-24T03:12:55;6.00;99.90
64796;DHT22;51229;51.980;6.722;2023-04-24T03:15:20;6.10;99.90
64796;DHT22;51229;51.980;6.722;2023-04-24T03:17:46;6.40;99.90
64796;DHT22;51229;51.980;6.722;2023-04-24T03:20:12;6.10;99.90
64796;DHT22;51229;51.980;6.722;2023-04-24T03:22:38;5.90;99.90
64796;DHT22;51229;51.980;6.722;2023-04-24T03:25:06;6.00;99.90
64796;DHT22;51229;51.980;6.722;2023-04-24T03:27:34;5.90;99.90
64796;DHT22;51229;51.980;6.722;2023-04-24T03:30:05;6.00;99.90
64796;DHT22;51229;51.980;6.722;2023-04-24T03:32:40;6.10;99.90
64796;DHT22;51229;51.980;6.722;2023-04-24T03:35:08;6.00;99.90
64796;DHT22;51229;51.980;6.722;2023-04-24T03:37:34;6.00;99.90
64796;DHT22;51229;51.980;6.722;2023-04-24T03:40:17;6.10;99.90
64796;DHT22;51229;51.980;6.722;2023-04-24T03:42:43;6.00;99.90
64796;DHT22;51229;51.980;6.722;2023-04-24T03:45:09;6.30;99.90
64796;DHT22;51229;51.980;6.722;2023-04-24T03:47:38;6.00;99.90
64796;DHT22;51229;51.980;6.722;2023-04-24T03:50:06;6.10;99.90
64796;DHT22;51229;51.980;6.722;2023-04-24T03:52:33;6.30;99.90
64796;DHT22;51229;51.980;6.722;2023-04-24T03:55:00;6.00;99.90
64796;DHT22;51229;51.980;6.722;2023-04-24T03:57:27;6.30;99.90
64796;DHT22;51229;51.980;6.722;2023-04-24T04:00:05;6.30;99.90
64796;DHT22;51229;51.980;6.722;2023-04-24T04:02:40;6.00;99.90
64796;DHT22;51229;51.980;6.722;2023-04-24T04:05:07;5.90;99.90
64796;DHT22;51229;51.980;6.722;2023-04-24T04:07:33;5.90;99.90
64796;DHT22;51229;51.980;6.722;2023-04-24T04:09:59;5.70;99.90
64796;DHT22;51229;51.980;6.722;2023-04-24T04:12:25;6.00;99.90
64796;DHT22;51229;51.980;6.722;2023-04-24T04:14:51;6.00;99.90
64796;DHT22;51229;51.980;6.722;2023-04-24T04:17:17;6.00;99.90
64796;DHT22;51229;51.980;6.722;2023-04-24T04:19:43;6.10;99.90
64796;DHT22;51229;51.980;6.722;2023-04-24T04:22:09;5.90;99.90
64796;DHT22;51229;51.980;6.722;2023-04-24T04:24:42;5.80;99.90
64796;DHT22;51229;51.980;6.722;2023-04-24T04:27:09;5.90;99.90
64796;DHT22;51229;51.980;6.722;2023-04-24T04:29:44;6.30;99.90
64796;DHT22;51229;51.980;6.722;2023-04-24T04:32:13;6.20;99.90
64796;DHT22;51229;51.980;6.722;2023-04-24T04:34:39;6.20;99.90
64796;DHT22;51229;51.980;6.722;2023-04-24T04:37:06;6.00;99.90
64796;DHT22;51229;51.980;6.722;2023-04-24T04:39:52;5.80;99.90
64796;DHT22;51229;51.980;6.722;2023-04-24T04:42:22;6.20;99.90
64796;DHT22;51229;51.980;6.722;2023-04-24T04:44:49;5.90;99.90
64796;DHT22;51229;51.980;6.722;2023-04-24T04:47:20;6.00;99.90
64796;DHT22;51229;51.980;6.722;2023-04-24T04:49:50;6.20;99.90
64796;DHT22;51229;51.980;6.722;2023-04-24T04:52:20;6.20;99.90
64796;DHT22;51229;51.980;6.722;2023-04-24T04:54:52;5.90;99.90
64796;DHT22;51229;51.980;6.722;2023-04-24T04:57:20;5.80;99.90
64796;DHT22;51229;51.980;6.722;2023-04-24T04:59:46;5.40;99.90
64796;DHT22;51229;51.980;6.722;2023-04-24T05:02:19;5.80;99.90
64796;DHT22;51229;51.980;6.722;2023-04-24T05:04:46;5.90;99.90
64796;DHT22;51229;51.980;6.722;2023-04-24T05:07:11;5.80;99.90
64796;DHT22;51229;51.980;6.722;2023-04-24T05:09:40;5.60;99.90
64796;DHT22;51229;51.980;6.722;2023-04-24T05:12:06;5.70;99.90
64796;DHT22;51229;51.980;6.722;2023-04-24T05:14:38;5.70;99.90
64796;DHT22;51229;51.980;6.722;2023-04-24T05:17:03;5.60;99.90
64796;DHT22;51229;51.980;6.722;2023-04-24T05:19:30;5.40;99.90
64796;DHT22;51229;51.980;6.722;2023-04-24T05:21:58;5.30;99.90
64796;DHT22;51229;51.980;6.722;2023-04-24T05:24:24;5.60;99.90
64796;DHT22;51229;51.980;6.722;2023-04-24T05:27:12;5.70;99.90
64796;DHT22;51229;51.980;6.722;2023-04-24T05:29:40;5.60;99.90
64796;DHT22;51229;51.980;6.722;2023-04-24T05:32:06;5.50;99.90
64796;DHT22;51229;51.980;6.722;2023-04-24T05:34:32;5.40;99.90
64796;DHT22;51229;51.980;6.722;2023-04-24T05:36:57;5.40;99.90
64796;DHT22;51229;51.980;6.722;2023-04-24T05:39:23;5.60;99.90
64796;DHT22;51229;51.980;6.722;2023-04-24T05:41:51;5.70;99.90
64796;DHT22;51229;51.980;6.722;2023-04-24T05:44:16;5.70;99.90
64796;DHT22;51229;51.980;6.722;2023-04-24T05:46:42;5.90;99.90
64796;DHT22;51229;51.980;6.722;2023-04-24T05:49:09;5.70;99.90
64796;DHT22;51229;51.980;6.722;2023-04-24T05:51:35;5.70;99.90
64796;DHT22;51229;51.980;6.722;2023-04-24T05:54:01;5.50;99.90
64796;DHT22;51229;51.980;6.722;2023-04-24T05:56:28;5.50;99.90
64796;DHT22;51229;51.980;6.722;2023-04-24T05:58:54;5.50;99.90
64796;DHT22;51229;51.980;6.722;2023-04-24T06:01:20;5.60;99.90
64796;DHT22;51229;51.980;6.722;2023-04-24T06:03:53;5.50;99.90
64796;DHT22;51229;51.980;6.722;2023-04-24T06:06:19;5.30;99.90
64796;DHT22;51229;51.980;6.722;2023-04-24T06:08:45;5.40;99.90
64796;DHT22;51229;51.980;6.722;2023-04-24T06:11:11;5.30;99.90
64796;DHT22;51229;51.980;6.722;2023-04-24T06:13:38;5.40;99.90
64796;DHT22;51229;51.980;6.722;2023-04-24T06:16:22;5.50;99.90
64796;DHT22;51229;51.980;6.722;2023-04-24T06:18:54;5.30;99.90
64796;DHT22;51229;51.980;6.722;2023-04-24T06:21:20;5.40;99.90
64796;DHT22;51229;51.980;6.722;2023-04-24T06:23:46;5.30;99.90
64796;DHT22;51229;51.980;6.722;2023-04-24T06:26:14;5.60;99.90
64796;DHT22;51229;51.980;6.722;2023-04-24T06:28:40;5.50;99.90
64796;DHT22;51229;51.980;6.722;2023-04-24T06:31:05;5.70;99.90
64796;DHT22;51229;51.980;6.722;2023-04-24T06:33:31;5.70;99.90
64796;DHT22;51229;51.980;6.722;2023-04-24T06:35:57;5.70;99.90
64796;DHT22;51229;51.980;6.722;2023-04-24T06:38:23;5.70;99.90
64796;DHT22;51229;51.980;6.722;2023-04-24T06:40:49;5.70;99.90
64796;DHT22;51229;51.980;6.722;2023-04-24T06:43:15;5.60;99.90
64796;DHT22;51229;51.980;6.722;2023-04-24T06:45:41;5.40;99.90
64796;DHT22;51229;51.980;6.722;2023-04-24T06:48:08;5.50;99.90
64796;DHT22;51229;51.980;6.722;2023-04-24T06:50:34;5.60;99.90
64796;DHT22;51229;51.980;6.722;2023-04-24T06:53:00;5.80;99.90
64796;DHT22;51229;51.980;6.722;2023-04-24T06:55:25;5.80;99.90
64796;DHT22;51229;51.980;6.722;2023-04-24T06:57:51;5.80;99.90
64796;DHT22;51229;51.980;6.722;2023-04-24T07:00:17;5.80;99.90
64796;DHT22;51229;51.980;6.722;2023-04-24T07:02:42;6.00;99.90
64796;DHT22;51229;51.980;6.722;2023-04-24T07:05:08;5.90;99.90
64796;DHT22;51229;51.980;6.722;2023-04-24T07:07:35;6.10;99.90
64796;DHT22;51229;51.980;6.722;2023-04-24T07:10:04;6.10;99.90
64796;DHT22;51229;51.980;6.722;2023-04-24T07:12:30;6.10;99.90
64796;DHT22;51229;51.980;6.722;2023-04-24T07:14:55;6.00;99.90
64796;DHT22;51229;51.980;6.722;2023-04-24T07:17:21;5.80;99.90
64796;DHT22;51229;51.980;6.722;2023-04-24T07:19:47;6.20;99.90
64796;DHT22;51229;51.980;6.722;2023-04-24T07:22:12;6.10;99.90
64796;DHT22;51229;51.980;6.722;2023-04-24T07:24:46;6.00;99.90
64796;DHT22;51229;51.980;6.722;2023-04-24T07:27:11;6.00;99.90
64796;DHT22;51229;51.980;6.722;2023-04-24T07:29:37;5.90;99.90
64796;DHT22;51229;51.980;6.722;2023-04-24T07:32:03;5.90;99.90
64796;DHT22;51229;51.980;6.722;2023-04-24T07:34:29;5.80;99.90
64796;DHT22;51229;51.980;6.722;2023-04-24T07:36:55;6.00;99.90
64796;DHT22;51229;51.980;6.722;2023-04-24T07:39:21;6.00;99.90
64796;DHT22;51229;51.980;6.722;2023-04-24T07:41:46;6.10;99.90
64796;DHT22;51229;51.980;6.722;2023-04-24T07:44:12;6.30;99.90
64796;DHT22;51229;51.980;6.722;2023-04-24T07:46:37;6.60;99.90
64796;DHT22;51229;51.980;6.722;2023-04-24T07:49:04;6.40;99.90
64796;DHT22;51229;51.980;6.722;2023-04-24T07:51:30;6.40;99.90
64796;DHT22;51229;51.980;6.722;2023-04-24T07:53:56;6.60;99.90
64796;DHT22;51229;51.980;6.722;2023-04-24T07:56:22;6.60;99.90
64796;DHT22;51229;51.980;6.722;2023-04-24T07:58:47;6.10;99.90
64796;DHT22;51229;51.980;6.722;2023-04-24T08:01:13;6.20;99.90
64796;DHT22;51229;51.980;6.722;2023-04-24T08:03:39;6.20;99.90
64796;DHT22;51229;51.980;6.722;2023-04-24T08:06:05;6.00;99.90
64796;DHT22;51229;51.980;6.722;2023-04-24T08:08:30;6.10;99.90
64796;DHT22;51229;51.980;6.722;2023-04-24T08:10:56;6.40;99.90
64796;DHT22;51229;51.980;6.722;2023-04-24T08:13:22;6.50;99.90
64796;DHT22;51229;51.980;6.722;2023-04-24T08:15:47;6.40;99.90
64796;DHT22;51229;51.980;6.722;2023-04-24T08:18:13;6.30;99.90
64796;DHT22;51229;51.980;6.722;2023-04-24T08:20:41;6.40;99.90
64796;DHT22;51229;51.980;6.722;2023-04-24T08:23:06;6.30;99.90
64796;DHT22;51229;51.980;6.722;2023-04-24T08:25:32;6.30;99.90
64796;DHT22;51229;51.980;6.722;2023-04-24T08:27:58;6.30;99.90
64796;DHT22;51229;51.980;6.722;2023-04-24T08:30:24;6.30;99.90
64796;DHT22;51229;51.980;6.722;2023-04-24T08:32:49;6.10;99.90
64796;DHT22;51229;51.980;6.722;2023-04-24T08:35:15;6.30;99.90
64796;DHT22;51229;51.980;6.722;2023-04-24T08:37:41;6.30;99.90
64796;DHT22;51229;51.980;6.722;2023-04-24T08:40:13;6.20;99.90
64796;DHT22;51229;51.980;6.722;2023-04-24T08:42:41;6.10;99.90
64796;DHT22;51229;51.980;6.722;2023-04-24T08:45:08;6.40;99.90
64796;DHT22;51229;51.980;6.722;2023-04-24T08:47:34;6.40;99.90
64796;DHT22;51229;51.980;6.722;2023-04-24T08:50:02;6.30;99.90
64796;DHT22;51229;51.980;6.722;2023-04-24T08:52:28;6.50;99.90
64796;DHT22;51229;51.980;6.722;2023-04-24T08:54:55;6.40;99.90
64796;DHT22;51229;51.980;6.722;2023-04-24T08:57:22;6.60;99.90
64796;DHT22;51229;51.980;6.722;2023-04-24T08:59:48;6.50;99.90
64796;DHT22;51229;51.980;6.722;2023-04-24T09:02:14;6.70;99.90
64796;DHT22;51229;51.980;6.722;2023-04-24T09:04:41;6.60;99.90
64796;DHT22;51229;51.980;6.722;2023-04-24T09:07:09;6.60;99.90
64796;DHT22;51229;51.980;6.722;2023-04-24T09:09:36;6.50;99.90
64796;DHT22;51229;51.980;6.722;2023-04-24T09:12:04;6.70;99.90
64796;DHT22;51229;51.980;6.722;2023-04-24T09:14:30;6.50;99.90
64796;DHT22;51229;51.980;6.722;2023-04-24T09:16:57;6.40;99.90
64796;DHT22;51229;51.980;6.722;2023-04-24T09:19:23;6.70;99.90
64796;DHT22;51229;51.980;6.722;2023-04-24T09:21:49;6.80;99.90
64796;DHT22;51229;51.980;6.722;2023-04-24T09:24:16;6.60;99.90
64796;DHT22;51229;51.980;6.722;2023-04-24T09:26:43;6.60;99.90
64796;DHT22;51229;51.980;6.722;2023-04-24T09:29:17;6.80;99.90
64796;DHT22;51229;51.980;6.722;2023-04-24T09:31:44;6.80;99.90
64796;DHT22;51229;51.980;6.722;2023-04-24T09:34:10;6.80;99.90
64796;DHT22;51229;51.980;6.722;2023-04-24T09:36:43;6.90;99.90
64796;DHT22;51229;51.980;6.722;2023-04-24T09:39:13;6.90;99.90
64796;DHT22;51229;51.980;6.722;2023-04-24T09:41:52;6.70;99.90
64796;DHT22;51229;51.980;6.722;2023-04-24T09:44:19;6.90;99.90
64796;DHT22;51229;51.980;6.722;2023-04-24T09:46:50;6.90;99.90
64796;DHT22;51229;51.980;6.722;2023-04-24T09:49:22;6.70;99.90
64796;DHT22;51229;51.980;6.722;2023-04-24T09:51:48;6.80;99.90
64796;DHT22;51229;51.980;6.722;2023-04-24T09:54:15;6.80;99.90
64796;DHT22;51229;51.980;6.722;2023-04-24T09:56:45;6.80;99.90
64796;DHT22;51229;51.980;6.722;2023-04-24T09:59:13;6.80;99.90
64796;DHT22;51229;51.980;6.722;2023-04-24T10:01:39;6.80;99.90
64796;DHT22;51229;51.980;6.722;2023-04-24T10:04:19;6.70;99.90
64796;DHT22;51229;51.980;6.722;2023-04-24T10:06:45;6.70;99.90
64796;DHT22;51229;51.980;6.722;2023-04-24T10:09:12;6.80;99.90
64796;DHT22;51229;51.980;6.722;2023-04-24T10:11:42;6.80;99.90
64796;DHT22;51229;51.980;6.722;2023-04-24T10:14:20;6.80;99.90
64796;DHT22;51229;51.980;6.722;2023-04-24T10:16:47;6.70;99.90
64796;DHT22;51229;51.980;6.722;2023-04-24T10:19:15;6.50;99.90
64796;DHT22;51229;51.980;6.722;2023-04-24T10:21:43;6.60;99.90
64796;DHT22;51229;51.980;6.722;2023-04-24T10:24:16;6.70;99.90
64796;DHT22;51229;51.980;6.722;2023-04-24T10:26:43;6.70;99.90
64796;DHT22;51229;51.980;6.722;2023-04-24T10:29:11;6.60;99.90
64796;DHT22;51229;51.980;6.722;2023-04-24T10:31:38;6.40;99.90
64796;DHT22;51229;51.980;6.722;2023-04-24T10:34:09;6.50;99.90
64796;DHT22;51229;51.980;6.722;2023-04-24T10:36:36;6.70;99.90
64796;DHT22;51229;51.980;6.722;2023-04-24T10:39:04;6.30;99.90
64796;DHT22;51229;51.980;6.722;2023-04-24T10:41:32;6.50;99.90
64796;DHT22;51229;51.980;6.722;2023-04-24T10:44:12;6.40;99.90
64796;DHT22;51229;51.980;6.722;2023-04-24T10:46:39;6.60;99.90
64796;DHT22;51229;51.980;6.722;2023-04-24T10:49:08;6.60;99.90
64796;DHT22;51229;51.980;6.722;2023-04-24T10:52:03;6.70;99.90
64796;DHT22;51229;51.980;6.722;2023-04-24T10:54:47;6.70;99.90
64796;DHT22;51229;51.980;6.722;2023-04-24T10:59:49;6.80;99.90
64796;DHT22;51229;51.980;6.722;2023-04-24T11:02:15;6.90;99.90
64796;DHT22;51229;51.980;6.722;2023-04-24T11:04:41;7.00;99.90
64796;DHT22;51229;51.980;6.722;2023-04-24T11:07:11;7.00;99.90
64796;DHT22;51229;51.980;6.722;2023-04-24T11:09:37;7.00;99.90
64796;DHT22;51229;51.980;6.722;2023-04-24T11:12:08;7.10;99.90
64796;DHT22;51229;51.980;6.722;2023-04-24T11:17:36;7.10;99.90
64796;DHT22;51229;51.980;6.722;2023-04-24T11:20:07;7.10;99.90
64796;DHT22;51229;51.980;6.722;2023-04-24T11:22:34;7.00;99.90
64796;DHT22;51229;51.980;6.722;2023-04-24T11:25:04;7.30;99.90
64796;DHT22;51229;51.980;6.722;2023-04-24T11:27:39;7.30;99.90
64796;DHT22;51229;51.980;6.722;2023-04-24T11:30:05;7.40;99.90
64796;DHT22;51229;51.980;6.722;2023-04-24T11:32:40;7.50;99.90
64796;DHT22;51229;51.980;6.722;2023-04-24T11:35:20;7.60;99.90
64796;DHT22;51229;51.980;6.722;2023-04-24T11:37:51;7.40;99.90
64796;DHT22;51229;51.980;6.722;2023-04-24T11:40:19;7.40;99.90
64796;DHT22;51229;51.980;6.722;2023-04-24T11:42:50;7.30;99.90
64796;DHT22;51229;51.980;6.722;2023-04-24T11:45:23;7.30;99.90
64796;DHT22;51229;51.980;6.722;2023-04-24T11:47:49;7.20;99.90
64796;DHT22;51229;51.980;6.722;2023-04-24T11:50:17;7.30;99.90
64796;DHT22;51229;51.980;6.722;2023-04-24T11:52:45;7.20;99.90
64796;DHT22;51229;51.980;6.722;2023-04-24T11:57:46;7.40;99.90
64796;DHT22;51229;51.980;6.722;2023-04-24T12:00:20;7.40;99.90
64796;DHT22;51229;51.980;6.722;2023-04-24T12:02:46;7.40;99.90
64796;DHT22;51229;51.980;6.722;2023-04-24T12:05:23;7.50;99.90
64796;DHT22;51229;51.980;6.722;2023-04-24T12:07:49;7.60;99.90
64796;DHT22;51229;51.980;6.722;2023-04-24T12:10:20;7.70;99.90
64796;DHT22;51229;51.980;6.722;2023-04-24T12:12:46;7.80;99.90
64796;DHT22;51229;51.980;6.722;2023-04-24T12:15:12;7.80;99.90
64796;DHT22;51229;51.980;6.722;2023-04-24T12:17:41;7.80;99.90
64796;DHT22;51229;51.980;6.722;2023-04-24T12:20:08;7.70;99.90
64796;DHT22;51229;51.980;6.722;2023-04-24T12:22:47;7.70;99.90
64796;DHT22;51229;51.980;6.722;2023-04-24T12:25:14;7.60;99.90
64796;DHT22;51229;51.980;6.722;2023-04-24T12:27:40;7.70;99.90
64796;DHT22;51229;51.980;6.722;2023-04-24T12:30:13;7.70;99.90
64796;DHT22;51229;51.980;6.722;2023-04-24T12:32:44;7.80;99.90
64796;DHT22;51229;51.980;6.722;2023-04-24T12:35:10;7.80;99.90
64796;DHT22;51229;51.980;6.722;2023-04-24T12:37:36;7.70;99.90
64796;DHT22;51229;51.980;6.722;2023-04-24T12:40:09;7.60;99.90
64796;DHT22;51229;51.980;6.722;2023-04-24T12:42:43;7.60;99.90
64796;DHT22;51229;51.980;6.722;2023-04-24T12:45:08;7.50;99.90
64796;DHT22;51229;51.980;6.722;2023-04-24T12:47:34;7.50;99.90
64796;DHT22;51229;51.980;6.722;2023-04-24T12:50:01;7.60;99.90
64796;DHT22;51229;51.980;6.722;2023-04-24T12:52:29;7.50;99.90
64796;DHT22;51229;51.980;6.722;2023-04-24T12:54:57;7.50;99.90
64796;DHT22;51229;51.980;6.722;2023-04-24T12:57:24;7.70;99.90
64796;DHT22;51229;51.980;6.722;2023-04-24T12:59:50;7.60;99.90
64796;DHT22;51229;51.980;6.722;2023-04-24T13:02:16;7.70;99.90
64796;DHT22;51229;51.980;6.722;2023-04-24T13:04:45;7.90;99.90
64796;DHT22;51229;51.980;6.722;2023-04-24T13:07:12;8.00;99.90
64796;DHT22;51229;51.980;6.722;2023-04-24T13:09:39;7.80;99.90
64796;DHT22;51229;51.980;6.722;2023-04-24T13:12:05;7.40;99.90
64796;DHT22;51229;51.980;6.722;2023-04-24T13:14:31;7.50;99.90
64796;DHT22;51229;51.980;6.722;2023-04-24T13:16:57;7.50;99.90
64796;DHT22;51229;51.980;6.722;2023-04-24T13:19:26;7.60;99.90
64796;DHT22;51229;51.980;6.722;2023-04-24T13:21:56;7.60;99.90
64796;DHT22;51229;51.980;6.722;2023-04-24T13:24:25;7.70;99.90
64796;DHT22;51229;51.980;6.722;2023-04-24T13:26:54;7.80;99.90
64796;DHT22;51229;51.980;6.722;2023-04-24T13:29:22;7.80;99.90
64796;DHT22;51229;51.980;6.722;2023-04-24T13:31:50;7.90;99.90
64796;DHT22;51229;51.980;6.722;2023-04-24T13:34:17;7.90;99.90
64796;DHT22;51229;51.980;6.722;2023-04-24T13:36:42;8.00;99.90
64796;DHT22;51229;51.980;6.722;2023-04-24T13:39:08;7.90;99.90
64796;DHT22;51229;51.980;6.722;2023-04-24T13:41:34;7.90;99.90
64796;DHT22;51229;51.980;6.722;2023-04-24T13:44:02;8.10;99.90
64796;DHT22;51229;51.980;6.722;2023-04-24T13:46:28;8.30;99.90
64796;DHT22;51229;51.980;6.722;2023-04-24T13:48:53;8.10;99.90
64796;DHT22;51229;51.980;6.722;2023-04-24T13:51:19;8.00;99.90
64796;DHT22;51229;51.980;6.722;2023-04-24T13:53:45;7.90;99.90
64796;DHT22;51229;51.980;6.722;2023-04-24T13:56:11;7.90;99.90
64796;DHT22;51229;51.980;6.722;2023-04-24T13:58:38;7.80;99.90
64796;DHT22;51229;51.980;6.722;2023-04-24T14:01:04;7.80;99.90
64796;DHT22;51229;51.980;6.722;2023-04-24T14:03:29;7.80;99.90
64796;DHT22;51229;51.980;6.722;2023-04-24T14:05:56;7.80;99.90
64796;DHT22;51229;51.980;6.722;2023-04-24T14:08:21;7.90;99.90
64796;DHT22;51229;51.980;6.722;2023-04-24T14:10:47;7.90;99.90
64796;DHT22;51229;51.980;6.722;2023-04-24T14:13:13;8.00;99.90
64796;DHT22;51229;51.980;6.722;2023-04-24T14:15:39;8.10;99.90
64796;DHT22;51229;51.980;6.722;2023-04-24T14:18:05;8.30;99.90
64796;DHT22;51229;51.980;6.722;2023-04-24T14:20:30;8.20;99.90
64796;DHT22;51229;51.980;6.722;2023-04-24T14:22:56;7.80;99.90
64796;DHT22;51229;51.980;6.722;2023-04-24T14:25:24;7.90;99.90
64796;DHT22;51229;51.980;6.722;2023-04-24T14:27:50;8.00;99.90
64796;DHT22;51229;51.980;6.722;2023-04-24T14:30:17;7.90;99.90
64796;DHT22;51229;51.980;6.722;2023-04-24T14:32:42;7.50;99.90
64796;DHT22;51229;51.980;6.722;2023-04-24T14:35:08;7.50;99.90
64796;DHT22;51229;51.980;6.722;2023-04-24T14:37:34;7.70;99.90
64796;DHT22;51229;51.980;6.722;2023-04-24T14:40:01;7.70;99.90
64796;DHT22;51229;51.980;6.722;2023-04-24T14:42:27;7.70;99.90
64796;DHT22;51229;51.980;6.722;2023-04-24T14:44:54;7.80;99.90
64796;DHT22;51229;51.980;6.722;2023-04-24T14:47:20;7.60;99.90
64796;DHT22;51229;51.980;6.722;2023-04-24T14:49:48;7.50;99.90
64796;DHT22;51229;51.980;6.722;2023-04-24T14:52:13;7.50;99.90
64796;DHT22;51229;51.980;6.722;2023-04-24T14:54:39;7.70;99.90
64796;DHT22;51229;51.980;6.722;2023-04-24T14:57:05;7.50;99.90
64796;DHT22;51229;51.980;6.722;2023-04-24T14:59:31;7.60;99.90
64796;DHT22;51229;51.980;6.722;2023-04-24T15:01:57;7.70;99.90
64796;DHT22;51229;51.980;6.722;2023-04-24T15:04:26;7.90;99.90
64796;DHT22;51229;51.980;6.722;2023-04-24T15:06:53;8.00;99.90
64796;DHT22;51229;51.980;6.722;2023-04-24T15:09:23;8.00;99.90
64796;DHT22;51229;51.980;6.722;2023-04-24T15:11:49;8.00;99.90
64796;DHT22;51229;51.980;6.722;2023-04-24T15:14:16;8.10;99.90
64796;DHT22;51229;51.980;6.722;2023-04-24T15:16:42;8.20;99.90
64796;DHT22;51229;51.980;6.722;2023-04-24T15:19:08;8.30;99.90
64796;DHT22;51229;51.980;6.722;2023-04-24T15:21:36;8.40;99.90
64796;DHT22;51229;51.980;6.722;2023-04-24T15:24:01;8.30;99.90
64796;DHT22;51229;51.980;6.722;2023-04-24T15:26:27;8.30;99.90
64796;DHT22;51229;51.980;6.722;2023-04-24T15:28:53;8.30;99.90
64796;DHT22;51229;51.980;6.722;2023-04-24T15:31:19;8.20;99.90
64796;DHT22;51229;51.980;6.722;2023-04-24T15:33:45;8.10;99.90
64796;DHT22;51229;51.980;6.722;2023-04-24T15:36:10;8.20;99.90
64796;DHT22;51229;51.980;6.722;2023-04-24T15:38:37;8.20;99.90
64796;DHT22;51229;51.980;6.722;2023-04-24T15:41:03;8.10;99.90
64796;DHT22;51229;51.980;6.722;2023-04-24T15:43:29;8.30;99.90
64796;DHT22;51229;51.980;6.722;2023-04-24T15:45:57;8.20;99.90
64796;DHT22;51229;51.980;6.722;2023-04-24T15:48:22;8.10;99.90
64796;DHT22;51229;51.980;6.722;2023-04-24T15:50:48;8.20;99.90
64796;DHT22;51229;51.980;6.722;2023-04-24T15:53:14;8.10;99.90